RYR21MN LIME-LFBZ
Flight info
| Callsign | RYR21MN |
|---|---|
| Flight time | N/A |
| Altitude | 39000 |
| Route | SRN1VXOMETO1B/28 OMETO DCT BELUS/N0436F380 DCT LSE/N0438F390 UY305 ESIDA DCT FISTO DCT BAKTA DCT MAGEC |
| Aircraft | B738/M-SDE2E3FGHIRWXY/LB1 |
Departure
| Time | N/A |
|---|---|
| Airport | Il Caravaggio International Airport (LIME) |
Arrival
| Time | 2026-04-28 20:53 |
|---|---|
| Airport | Biarritz Pays Basque airport (LFBZ) |
| Time | Latitude | Longitude | Altitude | Speed | Heading |
|---|---|---|---|---|---|
| 2026-04-28 20:04 | 45.29014 | 3.74607 | 39029 ft | 408 kts | 247° |
| 2026-04-28 20:04 | 45.26707 | 3.67258 | 39035 ft | 407 kts | 247° |
| 2026-04-28 20:05 | 45.24393 | 3.59912 | 39029 ft | 407 kts | 247° |
| 2026-04-28 20:05 | 45.22077 | 3.52578 | 39031 ft | 407 kts | 247° |
| 2026-04-28 20:06 | 45.19753 | 3.45238 | 39021 ft | 408 kts | 247° |
| 2026-04-28 20:06 | 45.17425 | 3.37911 | 39028 ft | 408 kts | 247° |
| 2026-04-28 20:07 | 45.15085 | 3.30562 | 39023 ft | 409 kts | 247° |
| 2026-04-28 20:07 | 45.12743 | 3.23230 | 39020 ft | 409 kts | 246° |
| 2026-04-28 20:08 | 45.10408 | 3.15940 | 39025 ft | 409 kts | 246° |
| 2026-04-28 20:08 | 45.08052 | 3.08604 | 39028 ft | 410 kts | 246° |
| 2026-04-28 20:09 | 45.05702 | 3.01308 | 39028 ft | 410 kts | 246° |
| 2026-04-28 20:09 | 45.03314 | 2.93916 | 39025 ft | 411 kts | 246° |
| 2026-04-28 20:10 | 45.00952 | 2.86627 | 39022 ft | 411 kts | 246° |
| 2026-04-28 20:10 | 44.98567 | 2.79283 | 39025 ft | 411 kts | 246° |
| 2026-04-28 20:11 | 44.96178 | 2.71949 | 39014 ft | 411 kts | 246° |
| 2026-04-28 20:11 | 44.93787 | 2.64631 | 39030 ft | 410 kts | 246° |
| 2026-04-28 20:12 | 44.91390 | 2.57313 | 39029 ft | 410 kts | 246° |
| 2026-04-28 20:12 | 44.88993 | 2.50014 | 39021 ft | 410 kts | 246° |
| 2026-04-28 20:13 | 44.86593 | 2.42728 | 39021 ft | 410 kts | 246° |
| 2026-04-28 20:13 | 44.84205 | 2.35499 | 39020 ft | 409 kts | 246° |
| 2026-04-28 20:14 | 44.81799 | 2.28234 | 39035 ft | 409 kts | 245° |
| 2026-04-28 20:14 | 44.79387 | 2.20974 | 39017 ft | 409 kts | 245° |
| 2026-04-28 20:15 | 44.76982 | 2.13750 | 39006 ft | 408 kts | 245° |
| 2026-04-28 20:15 | 44.74566 | 2.06514 | 39002 ft | 408 kts | 245° |
| 2026-04-28 20:16 | 44.72147 | 1.99292 | 38997 ft | 408 kts | 245° |
| 2026-04-28 20:16 | 44.69727 | 1.92083 | 38984 ft | 408 kts | 245° |
| 2026-04-28 20:17 | 44.67300 | 1.84875 | 38987 ft | 408 kts | 245° |
| 2026-04-28 20:17 | 44.64883 | 1.77715 | 38978 ft | 408 kts | 245° |
| 2026-04-28 20:18 | 44.62450 | 1.70524 | 38977 ft | 408 kts | 245° |
| 2026-04-28 20:18 | 44.60141 | 1.63723 | 38959 ft | 407 kts | 245° |
| 2026-04-28 20:19 | 44.57700 | 1.56546 | 38965 ft | 407 kts | 245° |
| 2026-04-28 20:19 | 44.56468 | 1.52933 | 38580 ft | 413 kts | 245° |
| 2026-04-28 20:19 | 44.55228 | 1.49300 | 38029 ft | 412 kts | 245° |
| 2026-04-28 20:19 | 44.54000 | 1.45706 | 37670 ft | 406 kts | 245° |
| 2026-04-28 20:20 | 44.52786 | 1.42160 | 37221 ft | 402 kts | 244° |
| 2026-04-28 20:20 | 44.51583 | 1.38648 | 36858 ft | 397 kts | 244° |
| 2026-04-28 20:20 | 44.50394 | 1.35183 | 36467 ft | 393 kts | 244° |
| 2026-04-28 20:20 | 44.49216 | 1.31753 | 36097 ft | 388 kts | 244° |
| 2026-04-28 20:21 | 44.48052 | 1.28367 | 35735 ft | 384 kts | 244° |
| 2026-04-28 20:21 | 44.46895 | 1.25010 | 35359 ft | 381 kts | 244° |
| 2026-04-28 20:21 | 44.45790 | 1.21661 | 35000 ft | 377 kts | 247° |
| 2026-04-28 20:21 | 44.44871 | 1.18257 | 34713 ft | 372 kts | 249° |
| 2026-04-28 20:22 | 44.44018 | 1.14892 | 34356 ft | 370 kts | 249° |
| 2026-04-28 20:22 | 44.43163 | 1.11467 | 34004 ft | 367 kts | 249° |
| 2026-04-28 20:22 | 44.42335 | 1.08154 | 33596 ft | 364 kts | 249° |
| 2026-04-28 20:22 | 44.41497 | 1.04826 | 33197 ft | 361 kts | 249° |
| 2026-04-28 20:23 | 44.40662 | 1.01538 | 32835 ft | 357 kts | 248° |
| 2026-04-28 20:23 | 44.39829 | 0.98276 | 32467 ft | 354 kts | 248° |
| 2026-04-28 20:23 | 44.39003 | 0.95053 | 32116 ft | 351 kts | 248° |
| 2026-04-28 20:23 | 44.38180 | 0.91856 | 31757 ft | 348 kts | 248° |
| 2026-04-28 20:24 | 44.37356 | 0.88667 | 31421 ft | 351 kts | 248° |
| 2026-04-28 20:24 | 44.36519 | 0.85437 | 31072 ft | 355 kts | 248° |
| 2026-04-28 20:24 | 44.35682 | 0.82207 | 30703 ft | 353 kts | 248° |
| 2026-04-28 20:24 | 44.34849 | 0.78995 | 30356 ft | 350 kts | 248° |
| 2026-04-28 20:25 | 44.34019 | 0.75801 | 30012 ft | 348 kts | 248° |
| 2026-04-28 20:25 | 44.33194 | 0.72628 | 29608 ft | 346 kts | 248° |
| 2026-04-28 20:25 | 44.32376 | 0.69489 | 29227 ft | 342 kts | 248° |
| 2026-04-28 20:25 | 44.31574 | 0.66415 | 28863 ft | 338 kts | 248° |
| 2026-04-28 20:26 | 44.30772 | 0.63342 | 28508 ft | 335 kts | 248° |
| 2026-04-28 20:26 | 44.29975 | 0.60296 | 28156 ft | 333 kts | 248° |
| 2026-04-28 20:26 | 44.29180 | 0.57261 | 27782 ft | 331 kts | 248° |
| 2026-04-28 20:26 | 44.28389 | 0.54246 | 27435 ft | 332 kts | 248° |
| 2026-04-28 20:27 | 44.27591 | 0.51209 | 27079 ft | 335 kts | 248° |
| 2026-04-28 20:27 | 44.26787 | 0.48156 | 26725 ft | 334 kts | 248° |
| 2026-04-28 20:27 | 44.25988 | 0.45119 | 26359 ft | 332 kts | 248° |
| 2026-04-28 20:27 | 44.25203 | 0.42141 | 26019 ft | 330 kts | 248° |
| 2026-04-28 20:28 | 44.24414 | 0.39151 | 25672 ft | 328 kts | 248° |
| 2026-04-28 20:28 | 44.23629 | 0.36181 | 25339 ft | 325 kts | 248° |
| 2026-04-28 20:28 | 44.22847 | 0.33223 | 24994 ft | 324 kts | 248° |
| 2026-04-28 20:28 | 44.22068 | 0.30284 | 24641 ft | 322 kts | 248° |
| 2026-04-28 20:29 | 44.21294 | 0.27364 | 24306 ft | 320 kts | 248° |
| 2026-04-28 20:29 | 44.20571 | 0.24645 | 23991 ft | 319 kts | 248° |
| 2026-04-28 20:29 | 44.19907 | 0.22151 | 23704 ft | 318 kts | 248° |
| 2026-04-28 20:29 | 44.19137 | 0.19257 | 23323 ft | 318 kts | 248° |
| 2026-04-28 20:30 | 44.18369 | 0.16373 | 22940 ft | 316 kts | 248° |
| 2026-04-28 20:30 | 44.17861 | 0.14470 | 22701 ft | 315 kts | 248° |
| 2026-04-28 20:30 | 44.17100 | 0.11619 | 22357 ft | 313 kts | 248° |
| 2026-04-28 20:30 | 44.17025 | 0.11335 | 22324 ft | 313 kts | 248° |
| 2026-04-28 20:31 | 44.16162 | 0.08107 | 21940 ft | 311 kts | 248° |
| 2026-04-28 20:31 | 44.15651 | 0.06201 | 21717 ft | 311 kts | 248° |
| 2026-04-28 20:32 | 44.14894 | 0.03376 | 21386 ft | 312 kts | 248° |
| 2026-04-28 20:32 | 44.14136 | 0.00549 | 21049 ft | 312 kts | 248° |
| 2026-04-28 20:32 | 44.13375 | -0.02282 | 20728 ft | 312 kts | 248° |
| 2026-04-28 20:32 | 44.12616 | -0.05107 | 20387 ft | 310 kts | 248° |
| 2026-04-28 20:33 | 44.11872 | -0.07873 | 20055 ft | 309 kts | 249° |
| 2026-04-28 20:33 | 44.11121 | -0.10659 | 19728 ft | 307 kts | 249° |
| 2026-04-28 20:33 | 44.10370 | -0.13443 | 19393 ft | 306 kts | 249° |
| 2026-04-28 20:33 | 44.09622 | -0.16209 | 19068 ft | 305 kts | 249° |
| 2026-04-28 20:34 | 44.08877 | -0.18966 | 18746 ft | 304 kts | 249° |
| 2026-04-28 20:34 | 44.08132 | -0.21718 | 18424 ft | 303 kts | 249° |
| 2026-04-28 20:34 | 44.07389 | -0.24460 | 18065 ft | 303 kts | 249° |
| 2026-04-28 20:34 | 44.06647 | -0.27192 | 17712 ft | 301 kts | 249° |
| 2026-04-28 20:35 | 44.05909 | -0.29911 | 17371 ft | 300 kts | 249° |
| 2026-04-28 20:35 | 44.05172 | -0.32620 | 17037 ft | 298 kts | 249° |
| 2026-04-28 20:35 | 44.04440 | -0.35308 | 16706 ft | 297 kts | 249° |
| 2026-04-28 20:35 | 44.03712 | -0.37980 | 16386 ft | 295 kts | 249° |
| 2026-04-28 20:36 | 44.02986 | -0.40643 | 16066 ft | 293 kts | 249° |
| 2026-04-28 20:36 | 44.02273 | -0.43252 | 15753 ft | 292 kts | 249° |
| 2026-04-28 20:36 | 44.01555 | -0.45879 | 15436 ft | 290 kts | 249° |
| 2026-04-28 20:36 | 44.00838 | -0.48498 | 15126 ft | 289 kts | 248° |
| 2026-04-28 20:37 | 44.00125 | -0.51098 | 14809 ft | 288 kts | 248° |
| 2026-04-28 20:37 | 43.99414 | -0.53692 | 14492 ft | 287 kts | 248° |
| 2026-04-28 20:37 | 43.98704 | -0.56276 | 14189 ft | 286 kts | 248° |
| 2026-04-28 20:37 | 43.97997 | -0.58851 | 13879 ft | 285 kts | 248° |
| 2026-04-28 20:38 | 43.97290 | -0.61420 | 13550 ft | 284 kts | 248° |
| 2026-04-28 20:38 | 43.96584 | -0.63981 | 13213 ft | 283 kts | 248° |
| 2026-04-28 20:38 | 43.95884 | -0.66520 | 12914 ft | 281 kts | 248° |
| 2026-04-28 20:38 | 43.95188 | -0.69040 | 12609 ft | 279 kts | 248° |
| 2026-04-28 20:39 | 43.94496 | -0.71546 | 12302 ft | 277 kts | 248° |
| 2026-04-28 20:39 | 43.93815 | -0.74009 | 11994 ft | 276 kts | 248° |
| 2026-04-28 20:39 | 43.93127 | -0.76493 | 11699 ft | 275 kts | 248° |
| 2026-04-28 20:39 | 43.92441 | -0.78969 | 11395 ft | 274 kts | 248° |
| 2026-04-28 20:40 | 43.91756 | -0.81437 | 11097 ft | 273 kts | 248° |
| 2026-04-28 20:40 | 43.91076 | -0.83888 | 10787 ft | 272 kts | 248° |
| 2026-04-28 20:40 | 43.90498 | -0.85966 | 10525 ft | 272 kts | 248° |
| 2026-04-28 20:40 | 43.89818 | -0.88411 | 10222 ft | 271 kts | 248° |
| 2026-04-28 20:41 | 43.89147 | -0.90819 | 10079 ft | 265 kts | 248° |
| 2026-04-28 20:41 | 43.88486 | -0.93191 | 9794 ft | 264 kts | 247° |
| 2026-04-28 20:41 | 43.87826 | -0.95556 | 9495 ft | 263 kts | 247° |
| 2026-04-28 20:41 | 43.87286 | -0.97493 | 9244 ft | 262 kts | 247° |
| 2026-04-28 20:42 | 43.86990 | -0.98550 | 9118 ft | 262 kts | 247° |
| 2026-04-28 20:42 | 43.86335 | -1.00897 | 8820 ft | 261 kts | 247° |
| 2026-04-28 20:42 | 43.85678 | -1.03243 | 8521 ft | 260 kts | 247° |
| 2026-04-28 20:43 | 43.85024 | -1.05576 | 8239 ft | 259 kts | 247° |
| 2026-04-28 20:43 | 43.84372 | -1.07901 | 7959 ft | 259 kts | 248° |
| 2026-04-28 20:43 | 43.83617 | -1.10154 | 7644 ft | 258 kts | 232° |
| 2026-04-28 20:43 | 43.82321 | -1.11807 | 7298 ft | 258 kts | 216° |
| 2026-04-28 20:44 | 43.80874 | -1.13291 | 7006 ft | 258 kts | 216° |
| 2026-04-28 20:44 | 43.79437 | -1.14779 | 6721 ft | 258 kts | 216° |
| 2026-04-28 20:44 | 43.78002 | -1.16273 | 6445 ft | 258 kts | 216° |
| 2026-04-28 20:44 | 43.76570 | -1.17767 | 6155 ft | 258 kts | 216° |
| 2026-04-28 20:45 | 43.75125 | -1.19231 | 5864 ft | 257 kts | 210° |
| 2026-04-28 20:45 | 43.73446 | -1.19975 | 5591 ft | 254 kts | 188° |
| 2026-04-28 20:45 | 43.71704 | -1.20371 | 5316 ft | 253 kts | 188° |
| 2026-04-28 20:45 | 43.69970 | -1.20777 | 5042 ft | 253 kts | 188° |
| 2026-04-28 20:46 | 43.68247 | -1.21185 | 4803 ft | 248 kts | 188° |
| 2026-04-28 20:46 | 43.66574 | -1.21587 | 4514 ft | 241 kts | 188° |
| 2026-04-28 20:46 | 43.64947 | -1.21979 | 4234 ft | 234 kts | 188° |
| 2026-04-28 20:46 | 43.63361 | -1.22361 | 4038 ft | 228 kts | 188° |
| 2026-04-28 20:47 | 43.61817 | -1.22734 | 3934 ft | 223 kts | 187° |
| 2026-04-28 20:47 | 43.60307 | -1.23097 | 3826 ft | 218 kts | 187° |
| 2026-04-28 20:47 | 43.58820 | -1.23449 | 3736 ft | 216 kts | 187° |
| 2026-04-28 20:47 | 43.57337 | -1.23801 | 3649 ft | 215 kts | 187° |
| 2026-04-28 20:48 | 43.55859 | -1.24151 | 3555 ft | 215 kts | 187° |
| 2026-04-28 20:48 | 43.54367 | -1.24504 | 3412 ft | 221 kts | 186° |
| 2026-04-28 20:48 | 43.52863 | -1.24854 | 3228 ft | 223 kts | 186° |
| 2026-04-28 20:48 | 43.51345 | -1.25208 | 3034 ft | 217 kts | 186° |
| 2026-04-28 20:49 | 43.49891 | -1.25549 | 2832 ft | 207 kts | 186° |
| 2026-04-28 20:49 | 43.48506 | -1.25876 | 2636 ft | 198 kts | 188° |
| 2026-04-28 20:49 | 43.47326 | -1.26726 | 2497 ft | 194 kts | 230° |
| 2026-04-28 20:49 | 43.46959 | -1.28495 | 2513 ft | 199 kts | 275° |
| 2026-04-28 20:50 | 43.47114 | -1.30405 | 2505 ft | 202 kts | 271° |
| 2026-04-28 20:50 | 43.47114 | -1.32330 | 2502 ft | 200 kts | 268° |
| 2026-04-28 20:50 | 43.47082 | -1.34228 | 2493 ft | 197 kts | 268° |
| 2026-04-28 20:50 | 43.47053 | -1.36115 | 2332 ft | 195 kts | 268° |
| 2026-04-28 20:51 | 43.47028 | -1.37924 | 2087 ft | 184 kts | 268° |
| 2026-04-28 20:51 | 43.47004 | -1.39637 | 1849 ft | 175 kts | 268° |
| 2026-04-28 20:51 | 43.46981 | -1.41297 | 1634 ft | 173 kts | 269° |
| 2026-04-28 20:51 | 43.46966 | -1.42367 | 1499 ft | 165 kts | 269° |
| 2026-04-28 20:52 | 43.46939 | -1.44405 | 1185 ft | 155 kts | 269° |
| 2026-04-28 20:52 | 43.46919 | -1.45889 | 989 ft | 155 kts | 269° |
| 2026-04-28 20:52 | 43.46894 | -1.47351 | 790 ft | 150 kts | 269° |
| 2026-04-28 20:52 | 43.46879 | -1.48768 | 574 ft | 146 kts | 270° |
| 2026-04-28 20:53 | 43.46847 | -1.51492 | 236 ft | 134 kts | 269° |
| 2026-04-28 20:53 | 43.46834 | -1.52532 | 241 ft | 78 kts | 269° |
| 2026-04-28 20:53 | 43.46829 | -1.52969 | 246 ft | 16 kts | 270° |
| 2026-04-28 20:54 | 43.46829 | -1.53068 | 246 ft | 13 kts | 272° |
| 2026-04-28 20:54 | 43.46872 | -1.53150 | 244 ft | 10 kts | 335° |
| 2026-04-28 20:54 | 43.46931 | -1.53184 | 244 ft | 4 kts | 336° |
| 2026-04-28 20:54 | 43.46955 | -1.53198 | 244 ft | 4 kts | 342° |
| 2026-04-28 20:55 | 43.46981 | -1.53203 | 244 ft | 4 kts | 359° |
| 2026-04-28 20:55 | 43.47009 | -1.53194 | 244 ft | 5 kts | 21° |
| 2026-04-28 20:55 | 43.47044 | -1.53154 | 244 ft | 9 kts | 58° |
| 2026-04-28 20:55 | 43.47053 | -1.53067 | 244 ft | 9 kts | 88° |
| 2026-04-28 20:56 | 43.47064 | -1.53001 | 244 ft | 4 kts | 25° |
| 2026-04-28 20:56 | 43.47095 | -1.52999 | 244 ft | 5 kts | 0° |
| 2026-04-28 20:56 | 43.47123 | -1.52999 | 244 ft | 3 kts | 0° |
| 2026-04-28 20:56 | 43.47134 | -1.52999 | 244 ft | 0 kts | 0° |
| 2026-04-28 20:59 | 43.47137 | -1.53064 | 244 ft | 0 kts | 345° |